sensor_id;sensor_type;location;lat;lon;timestamp;temperature;humidity
44477;DHT22;30180;44.788;10.366;2022-12-11T00:01:10;17.00;68.30
44477;DHT22;30180;44.788;10.366;2022-12-11T00:03:38;17.00;68.30
44477;DHT22;30180;44.788;10.366;2022-12-11T00:06:09;17.00;68.30
44477;DHT22;30180;44.788;10.366;2022-12-11T00:08:38;17.00;68.30
44477;DHT22;30180;44.788;10.366;2022-12-11T00:11:09;17.00;68.30
44477;DHT22;30180;44.788;10.366;2022-12-11T00:13:38;17.00;68.30
44477;DHT22;30180;44.788;10.366;2022-12-11T00:16:07;17.00;68.90
44477;DHT22;30180;44.788;10.366;2022-12-11T00:18:36;17.00;68.30
44477;DHT22;30180;44.788;10.366;2022-12-11T00:21:06;17.00;68.30
44477;DHT22;30180;44.788;10.366;2022-12-11T00:23:35;16.90;68.20
44477;DHT22;30180;44.788;10.366;2022-12-11T00:26:04;17.00;68.30
44477;DHT22;30180;44.788;10.366;2022-12-11T00:28:35;17.00;68.30
44477;DHT22;30180;44.788;10.366;2022-12-11T00:31:04;16.90;68.20
44477;DHT22;30180;44.788;10.366;2022-12-11T00:33:33;16.90;68.20
44477;DHT22;30180;44.788;10.366;2022-12-11T00:36:01;17.00;68.30
44477;DHT22;30180;44.788;10.366;2022-12-11T00:38:29;16.90;68.20
44477;DHT22;30180;44.788;10.366;2022-12-11T00:40:58;16.90;68.20
44477;DHT22;30180;44.788;10.366;2022-12-11T00:43:26;16.90;68.30
44477;DHT22;30180;44.788;10.366;2022-12-11T00:45:56;16.90;68.20
44477;DHT22;30180;44.788;10.366;2022-12-11T00:48:25;16.90;68.20
44477;DHT22;30180;44.788;10.366;2022-12-11T00:50:53;16.90;68.20
44477;DHT22;30180;44.788;10.366;2022-12-11T00:53:21;16.90;68.20
44477;DHT22;30180;44.788;10.366;2022-12-11T00:55:50;16.90;68.20
44477;DHT22;30180;44.788;10.366;2022-12-11T00:58:18;16.90;68.20
44477;DHT22;30180;44.788;10.366;2022-12-11T01:00:47;16.90;68.20
44477;DHT22;30180;44.788;10.366;2022-12-11T01:03:17;16.90;68.20
44477;DHT22;30180;44.788;10.366;2022-12-11T01:05:52;16.90;68.20
44477;DHT22;30180;44.788;10.366;2022-12-11T01:08:21;16.90;68.20
44477;DHT22;30180;44.788;10.366;2022-12-11T01:10:49;16.90;68.20
44477;DHT22;30180;44.788;10.366;2022-12-11T01:13:17;16.90;68.30
44477;DHT22;30180;44.788;10.366;2022-12-11T01:15:45;16.90;68.20
44477;DHT22;30180;44.788;10.366;2022-12-11T01:18:14;16.80;68.20
44477;DHT22;30180;44.788;10.366;2022-12-11T01:20:43;16.80;68.20
44477;DHT22;30180;44.788;10.366;2022-12-11T01:23:12;16.80;68.10
44477;DHT22;30180;44.788;10.366;2022-12-11T01:25:41;16.90;68.20
44477;DHT22;30180;44.788;10.366;2022-12-11T01:28:10;16.80;68.20
44477;DHT22;30180;44.788;10.366;2022-12-11T01:30:40;16.80;68.20
44477;DHT22;30180;44.788;10.366;2022-12-11T01:33:09;16.80;68.20
44477;DHT22;30180;44.788;10.366;2022-12-11T01:35:38;16.80;68.20
44477;DHT22;30180;44.788;10.366;2022-12-11T01:38:08;16.80;68.20
44477;DHT22;30180;44.788;10.366;2022-12-11T01:40:37;16.80;68.20
44477;DHT22;30180;44.788;10.366;2022-12-11T01:43:07;16.80;68.20
44477;DHT22;30180;44.788;10.366;2022-12-11T01:45:39;16.80;68.20
44477;DHT22;30180;44.788;10.366;2022-12-11T01:48:13;16.80;68.20
44477;DHT22;30180;44.788;10.366;2022-12-11T01:50:46;16.80;68.20
44477;DHT22;30180;44.788;10.366;2022-12-11T01:53:21;16.80;68.20
44477;DHT22;30180;44.788;10.366;2022-12-11T01:55:52;16.80;68.20
44477;DHT22;30180;44.788;10.366;2022-12-11T01:58:22;16.80;68.20
44477;DHT22;30180;44.788;10.366;2022-12-11T02:00:53;16.80;68.20
44477;DHT22;30180;44.788;10.366;2022-12-11T02:03:21;16.80;68.20
44477;DHT22;30180;44.788;10.366;2022-12-11T02:05:50;16.70;68.20
44477;DHT22;30180;44.788;10.366;2022-12-11T02:08:19;16.70;68.20
44477;DHT22;30180;44.788;10.366;2022-12-11T02:10:55;16.70;68.20
44477;DHT22;30180;44.788;10.366;2022-12-11T02:13:34;16.70;68.10
44477;DHT22;30180;44.788;10.366;2022-12-11T02:16:12;16.70;68.20
44477;DHT22;30180;44.788;10.366;2022-12-11T02:18:47;16.70;68.20
44477;DHT22;30180;44.788;10.366;2022-12-11T02:21:22;16.70;68.20
44477;DHT22;30180;44.788;10.366;2022-12-11T02:24:06;16.70;68.20
44477;DHT22;30180;44.788;10.366;2022-12-11T02:26:55;16.70;68.20
44477;DHT22;30180;44.788;10.366;2022-12-11T02:29:33;16.70;68.10
44477;DHT22;30180;44.788;10.366;2022-12-11T02:32:05;16.70;68.20
44477;DHT22;30180;44.788;10.366;2022-12-11T02:34:39;16.70;68.10
44477;DHT22;30180;44.788;10.366;2022-12-11T02:37:14;16.70;68.10
44477;DHT22;30180;44.788;10.366;2022-12-11T02:39:44;16.70;68.10
44477;DHT22;30180;44.788;10.366;2022-12-11T02:42:14;16.70;68.10
44477;DHT22;30180;44.788;10.366;2022-12-11T02:44:46;16.70;68.20
44477;DHT22;30180;44.788;10.366;2022-12-11T02:47:16;16.70;68.20
44477;DHT22;30180;44.788;10.366;2022-12-11T02:49:48;16.70;68.20
44477;DHT22;30180;44.788;10.366;2022-12-11T02:52:19;16.70;68.20
44477;DHT22;30180;44.788;10.366;2022-12-11T02:54:50;16.70;68.80
44477;DHT22;30180;44.788;10.366;2022-12-11T02:57:24;16.70;68.20
44477;DHT22;30180;44.788;10.366;2022-12-11T02:59:56;16.70;68.20
44477;DHT22;30180;44.788;10.366;2022-12-11T03:02:24;16.70;68.20
44477;DHT22;30180;44.788;10.366;2022-12-11T03:04:53;16.70;68.20
44477;DHT22;30180;44.788;10.366;2022-12-11T03:07:26;16.60;68.10
44477;DHT22;30180;44.788;10.366;2022-12-11T03:09:55;16.70;68.20
44477;DHT22;30180;44.788;10.366;2022-12-11T03:12:27;16.70;68.20
44477;DHT22;30180;44.788;10.366;2022-12-11T03:14:59;16.60;68.10
44477;DHT22;30180;44.788;10.366;2022-12-11T03:17:34;16.60;68.10
44477;DHT22;30180;44.788;10.366;2022-12-11T03:20:11;16.70;68.20
44477;DHT22;30180;44.788;10.366;2022-12-11T03:22:44;16.60;68.10
44477;DHT22;30180;44.788;10.366;2022-12-11T03:25:16;16.60;68.10
44477;DHT22;30180;44.788;10.366;2022-12-11T03:27:51;16.60;68.10
44477;DHT22;30180;44.788;10.366;2022-12-11T03:30:25;16.60;68.10
44477;DHT22;30180;44.788;10.366;2022-12-11T03:32:58;16.60;68.10
44477;DHT22;30180;44.788;10.366;2022-12-11T03:35:31;16.60;68.10
44477;DHT22;30180;44.788;10.366;2022-12-11T03:38:02;16.60;68.10
44477;DHT22;30180;44.788;10.366;2022-12-11T03:40:34;16.60;68.10
44477;DHT22;30180;44.788;10.366;2022-12-11T03:43:03;16.60;68.20
44477;DHT22;30180;44.788;10.366;2022-12-11T03:45:34;16.60;68.10
44477;DHT22;30180;44.788;10.366;2022-12-11T03:48:07;16.60;68.10
44477;DHT22;30180;44.788;10.366;2022-12-11T03:50:36;16.60;68.10
44477;DHT22;30180;44.788;10.366;2022-12-11T03:53:05;16.60;68.10
44477;DHT22;30180;44.788;10.366;2022-12-11T03:55:36;16.60;68.10
44477;DHT22;30180;44.788;10.366;2022-12-11T03:58:06;16.60;68.10
44477;DHT22;30180;44.788;10.366;2022-12-11T04:00:36;16.60;68.10
44477;DHT22;30180;44.788;10.366;2022-12-11T04:03:04;16.60;68.10
44477;DHT22;30180;44.788;10.366;2022-12-11T04:05:43;16.60;68.10
44477;DHT22;30180;44.788;10.366;2022-12-11T04:08:12;16.60;68.10
44477;DHT22;30180;44.788;10.366;2022-12-11T04:10:41;16.60;68.10
44477;DHT22;30180;44.788;10.366;2022-12-11T04:13:09;16.50;68.10
44477;DHT22;30180;44.788;10.366;2022-12-11T04:15:39;16.60;68.10
44477;DHT22;30180;44.788;10.366;2022-12-11T04:18:07;16.60;68.10
44477;DHT22;30180;44.788;10.366;2022-12-11T04:20:54;16.60;68.20
44477;DHT22;30180;44.788;10.366;2022-12-11T04:23:40;16.60;68.20
44477;DHT22;30180;44.788;10.366;2022-12-11T04:26:26;16.60;68.20
44477;DHT22;30180;44.788;10.366;2022-12-11T04:28:55;16.60;68.20
44477;DHT22;30180;44.788;10.366;2022-12-11T04:31:24;16.60;68.30
44477;DHT22;30180;44.788;10.366;2022-12-11T04:33:52;16.60;68.30
44477;DHT22;30180;44.788;10.366;2022-12-11T04:36:21;16.60;68.30
44477;DHT22;30180;44.788;10.366;2022-12-11T04:38:49;16.60;68.30
44477;DHT22;30180;44.788;10.366;2022-12-11T04:41:17;16.60;68.40
44477;DHT22;30180;44.788;10.366;2022-12-11T04:43:45;16.70;68.40
44477;DHT22;30180;44.788;10.366;2022-12-11T04:46:15;16.70;68.40
44477;DHT22;30180;44.788;10.366;2022-12-11T04:48:46;16.70;68.50
44477;DHT22;30180;44.788;10.366;2022-12-11T04:51:22;16.70;68.50
44477;DHT22;30180;44.788;10.366;2022-12-11T04:53:51;16.70;68.50
44477;DHT22;30180;44.788;10.366;2022-12-11T04:56:19;16.70;68.50
44477;DHT22;30180;44.788;10.366;2022-12-11T04:58:48;16.80;68.60
44477;DHT22;30180;44.788;10.366;2022-12-11T05:01:18;16.80;68.60
44477;DHT22;30180;44.788;10.366;2022-12-11T05:03:48;16.80;68.60
44477;DHT22;30180;44.788;10.366;2022-12-11T05:06:17;16.80;68.60
44477;DHT22;30180;44.788;10.366;2022-12-11T05:08:45;16.90;68.70
44477;DHT22;30180;44.788;10.366;2022-12-11T05:11:14;16.90;68.70
44477;DHT22;30180;44.788;10.366;2022-12-11T05:13:44;16.90;68.70
44477;DHT22;30180;44.788;10.366;2022-12-11T05:16:14;16.90;68.70
44477;DHT22;30180;44.788;10.366;2022-12-11T05:18:43;16.90;68.70
44477;DHT22;30180;44.788;10.366;2022-12-11T05:21:14;17.00;68.80
44477;DHT22;30180;44.788;10.366;2022-12-11T05:23:43;17.00;68.80
44477;DHT22;30180;44.788;10.366;2022-12-11T05:26:12;17.00;68.80
44477;DHT22;30180;44.788;10.366;2022-12-11T05:28:42;17.00;68.90
44477;DHT22;30180;44.788;10.366;2022-12-11T05:31:12;17.00;68.80
44477;DHT22;30180;44.788;10.366;2022-12-11T05:33:41;17.10;68.90
44477;DHT22;30180;44.788;10.366;2022-12-11T05:36:15;17.10;68.90
44477;DHT22;30180;44.788;10.366;2022-12-11T05:38:44;17.10;68.90
44477;DHT22;30180;44.788;10.366;2022-12-11T05:41:14;17.10;68.90
44477;DHT22;30180;44.788;10.366;2022-12-11T05:43:43;17.10;68.90
44477;DHT22;30180;44.788;10.366;2022-12-11T05:46:14;17.20;68.90
44477;DHT22;30180;44.788;10.366;2022-12-11T05:48:43;17.20;68.90
44477;DHT22;30180;44.788;10.366;2022-12-11T05:51:13;17.20;68.90
44477;DHT22;30180;44.788;10.366;2022-12-11T05:53:44;17.20;69.00
44477;DHT22;30180;44.788;10.366;2022-12-11T05:56:13;17.20;68.90
44477;DHT22;30180;44.788;10.366;2022-12-11T05:58:43;17.20;68.90
44477;DHT22;30180;44.788;10.366;2022-12-11T06:01:13;17.30;68.90
44477;DHT22;30180;44.788;10.366;2022-12-11T06:03:42;17.30;68.90
44477;DHT22;30180;44.788;10.366;2022-12-11T06:06:10;17.30;68.90
44477;DHT22;30180;44.788;10.366;2022-12-11T06:08:39;17.30;68.90
44477;DHT22;30180;44.788;10.366;2022-12-11T06:11:12;17.30;68.90
44477;DHT22;30180;44.788;10.366;2022-12-11T06:13:46;17.30;68.90
44477;DHT22;30180;44.788;10.366;2022-12-11T06:16:15;17.30;68.80
44477;DHT22;30180;44.788;10.366;2022-12-11T06:18:44;17.30;68.80
44477;DHT22;30180;44.788;10.366;2022-12-11T06:21:14;17.30;68.80
44477;DHT22;30180;44.788;10.366;2022-12-11T06:23:44;17.30;68.80
44477;DHT22;30180;44.788;10.366;2022-12-11T06:26:14;17.30;68.80
44477;DHT22;30180;44.788;10.366;2022-12-11T06:28:43;17.30;68.80
44477;DHT22;30180;44.788;10.366;2022-12-11T06:31:11;17.30;68.70
44477;DHT22;30180;44.788;10.366;2022-12-11T06:33:42;17.30;68.70
44477;DHT22;30180;44.788;10.366;2022-12-11T06:36:12;17.30;68.70
44477;DHT22;30180;44.788;10.366;2022-12-11T06:38:41;17.30;68.70
44477;DHT22;30180;44.788;10.366;2022-12-11T06:41:10;17.30;68.70
44477;DHT22;30180;44.788;10.366;2022-12-11T06:43:40;17.30;68.60
44477;DHT22;30180;44.788;10.366;2022-12-11T06:46:11;17.30;68.60
44477;DHT22;30180;44.788;10.366;2022-12-11T06:48:39;17.30;68.60
44477;DHT22;30180;44.788;10.366;2022-12-11T06:51:09;17.30;68.60
44477;DHT22;30180;44.788;10.366;2022-12-11T06:53:38;17.30;68.60
44477;DHT22;30180;44.788;10.366;2022-12-11T06:56:09;17.30;68.60
44477;DHT22;30180;44.788;10.366;2022-12-11T07:06:08;17.30;68.60
44477;DHT22;30180;44.788;10.366;2022-12-11T07:08:37;17.30;68.70
44477;DHT22;30180;44.788;10.366;2022-12-11T07:11:07;17.30;68.70
44477;DHT22;30180;44.788;10.366;2022-12-11T07:13:36;17.30;68.60
44477;DHT22;30180;44.788;10.366;2022-12-11T07:16:04;17.30;68.60
44477;DHT22;30180;44.788;10.366;2022-12-11T07:18:37;17.30;68.60
44477;DHT22;30180;44.788;10.366;2022-12-11T07:21:06;17.30;68.60
44477;DHT22;30180;44.788;10.366;2022-12-11T07:23:35;17.30;68.60
44477;DHT22;30180;44.788;10.366;2022-12-11T07:26:05;17.40;68.70
44477;DHT22;30180;44.788;10.366;2022-12-11T07:28:34;17.40;68.60
44477;DHT22;30180;44.788;10.366;2022-12-11T07:31:04;17.40;68.60
44477;DHT22;30180;44.788;10.366;2022-12-11T07:33:32;17.40;68.60
44477;DHT22;30180;44.788;10.366;2022-12-11T07:36:01;17.30;68.50
44477;DHT22;30180;44.788;10.366;2022-12-11T07:38:30;17.30;68.50
44477;DHT22;30180;44.788;10.366;2022-12-11T07:41:01;17.30;68.50
44477;DHT22;30180;44.788;10.366;2022-12-11T07:43:31;17.30;68.50
44477;DHT22;30180;44.788;10.366;2022-12-11T07:46:00;17.30;68.40
44477;DHT22;30180;44.788;10.366;2022-12-11T07:48:29;17.30;68.40
44477;DHT22;30180;44.788;10.366;2022-12-11T07:51:07;17.30;68.40
44477;DHT22;30180;44.788;10.366;2022-12-11T07:53:35;17.30;68.40
44477;DHT22;30180;44.788;10.366;2022-12-11T07:56:05;17.30;68.40
44477;DHT22;30180;44.788;10.366;2022-12-11T07:58:34;17.30;68.40
44477;DHT22;30180;44.788;10.366;2022-12-11T08:01:05;17.30;68.40
44477;DHT22;30180;44.788;10.366;2022-12-11T08:03:33;17.30;68.30
44477;DHT22;30180;44.788;10.366;2022-12-11T08:06:01;17.30;68.30
44477;DHT22;30180;44.788;10.366;2022-12-11T08:08:30;17.30;68.30
44477;DHT22;30180;44.788;10.366;2022-12-11T08:10:59;17.30;68.30
44477;DHT22;30180;44.788;10.366;2022-12-11T08:13:30;17.30;68.30
44477;DHT22;30180;44.788;10.366;2022-12-11T08:15:58;17.30;68.30
44477;DHT22;30180;44.788;10.366;2022-12-11T08:18:30;17.30;68.30
44477;DHT22;30180;44.788;10.366;2022-12-11T08:20:58;17.30;68.30
44477;DHT22;30180;44.788;10.366;2022-12-11T08:23:26;17.30;68.30
44477;DHT22;30180;44.788;10.366;2022-12-11T08:25:54;17.20;68.20
44477;DHT22;30180;44.788;10.366;2022-12-11T08:28:22;17.20;68.20
44477;DHT22;30180;44.788;10.366;2022-12-11T08:30:54;17.20;68.80
44477;DHT22;30180;44.788;10.366;2022-12-11T08:33:22;17.20;68.20
44477;DHT22;30180;44.788;10.366;2022-12-11T08:35:51;17.20;68.20
44477;DHT22;30180;44.788;10.366;2022-12-11T08:38:19;17.20;68.20
44477;DHT22;30180;44.788;10.366;2022-12-11T08:40:51;17.20;68.20
44477;DHT22;30180;44.788;10.366;2022-12-11T08:43:19;17.20;68.20
44477;DHT22;30180;44.788;10.366;2022-12-11T08:45:47;17.20;68.20
44477;DHT22;30180;44.788;10.366;2022-12-11T08:48:17;17.20;68.20
44477;DHT22;30180;44.788;10.366;2022-12-11T08:50:46;17.20;68.10
44477;DHT22;30180;44.788;10.366;2022-12-11T08:53:14;17.20;68.20
44477;DHT22;30180;44.788;10.366;2022-12-11T08:55:43;17.20;68.10
44477;DHT22;30180;44.788;10.366;2022-12-11T08:58:11;17.20;68.10
44477;DHT22;30180;44.788;10.366;2022-12-11T09:00:39;17.20;68.10
44477;DHT22;30180;44.788;10.366;2022-12-11T09:03:08;17.20;68.10
44477;DHT22;30180;44.788;10.366;2022-12-11T09:05:40;17.10;68.10
44477;DHT22;30180;44.788;10.366;2022-12-11T09:08:08;17.10;68.00
44477;DHT22;30180;44.788;10.366;2022-12-11T09:10:36;17.10;68.00
44477;DHT22;30180;44.788;10.366;2022-12-11T09:13:05;17.10;68.10
44477;DHT22;30180;44.788;10.366;2022-12-11T09:15:33;17.10;68.00
44477;DHT22;30180;44.788;10.366;2022-12-11T09:18:02;17.10;68.00
44477;DHT22;30180;44.788;10.366;2022-12-11T09:20:30;17.10;68.00
44477;DHT22;30180;44.788;10.366;2022-12-11T09:23:00;17.10;68.00
44477;DHT22;30180;44.788;10.366;2022-12-11T09:25:29;17.10;68.00
44477;DHT22;30180;44.788;10.366;2022-12-11T09:27:57;17.10;68.00
44477;DHT22;30180;44.788;10.366;2022-12-11T09:30:25;17.00;67.80
44477;DHT22;30180;44.788;10.366;2022-12-11T09:32:53;17.10;67.90
44477;DHT22;30180;44.788;10.366;2022-12-11T09:35:22;17.00;67.80
44477;DHT22;30180;44.788;10.366;2022-12-11T09:37:50;17.00;67.90
44477;DHT22;30180;44.788;10.366;2022-12-11T09:40:20;17.00;67.80
44477;DHT22;30180;44.788;10.366;2022-12-11T09:42:53;17.00;67.80
44477;DHT22;30180;44.788;10.366;2022-12-11T09:45:22;17.00;67.80
44477;DHT22;30180;44.788;10.366;2022-12-11T09:47:53;17.00;67.80
44477;DHT22;30180;44.788;10.366;2022-12-11T09:50:24;17.00;67.80
44477;DHT22;30180;44.788;10.366;2022-12-11T09:53:01;17.00;67.80
44477;DHT22;30180;44.788;10.366;2022-12-11T09:55:37;17.00;67.80
44477;DHT22;30180;44.788;10.366;2022-12-11T09:58:14;17.00;67.80
44477;DHT22;30180;44.788;10.366;2022-12-11T10:00:47;17.00;67.80
44477;DHT22;30180;44.788;10.366;2022-12-11T10:03:24;16.90;67.70
44477;DHT22;30180;44.788;10.366;2022-12-11T10:06:01;16.90;67.70
44477;DHT22;30180;44.788;10.366;2022-12-11T10:08:35;16.90;67.70
44477;DHT22;30180;44.788;10.366;2022-12-11T10:11:28;16.90;67.70
44477;DHT22;30180;44.788;10.366;2022-12-11T10:14:07;16.90;67.70
44477;DHT22;30180;44.788;10.366;2022-12-11T10:16:41;16.90;67.70
44477;DHT22;30180;44.788;10.366;2022-12-11T10:19:15;16.90;67.70
44477;DHT22;30180;44.788;10.366;2022-12-11T10:21:44;16.90;67.70
44477;DHT22;30180;44.788;10.366;2022-12-11T10:24:19;16.90;67.80
44477;DHT22;30180;44.788;10.366;2022-12-11T10:27:15;16.90;67.80
44477;DHT22;30180;44.788;10.366;2022-12-11T10:29:45;16.90;67.80
44477;DHT22;30180;44.788;10.366;2022-12-11T10:32:21;16.90;67.80
44477;DHT22;30180;44.788;10.366;2022-12-11T10:34:56;16.90;67.80
44477;DHT22;30180;44.788;10.366;2022-12-11T10:37:26;16.90;67.80
44477;DHT22;30180;44.788;10.366;2022-12-11T10:39:54;16.90;67.80
44477;DHT22;30180;44.788;10.366;2022-12-11T10:42:24;16.90;67.90
44477;DHT22;30180;44.788;10.366;2022-12-11T10:44:57;16.90;67.90
44477;DHT22;30180;44.788;10.366;2022-12-11T10:47:25;16.90;67.90
44477;DHT22;30180;44.788;10.366;2022-12-11T10:49:55;16.90;67.90
44477;DHT22;30180;44.788;10.366;2022-12-11T10:52:26;16.90;67.90
44477;DHT22;30180;44.788;10.366;2022-12-11T10:55:00;17.00;68.00
44477;DHT22;30180;44.788;10.366;2022-12-11T10:57:34;17.00;68.00
44477;DHT22;30180;44.788;10.366;2022-12-11T11:00:04;16.90;67.90
44477;DHT22;30180;44.788;10.366;2022-12-11T11:02:35;17.00;68.00
44477;DHT22;30180;44.788;10.366;2022-12-11T11:05:11;17.00;68.00
44477;DHT22;30180;44.788;10.366;2022-12-11T11:07:40;17.00;68.00
44477;DHT22;30180;44.788;10.366;2022-12-11T11:10:15;17.00;68.00
44477;DHT22;30180;44.788;10.366;2022-12-11T11:12:47;17.00;68.00
44477;DHT22;30180;44.788;10.366;2022-12-11T11:15:18;17.00;68.00
44477;DHT22;30180;44.788;10.366;2022-12-11T11:17:47;17.10;68.10
44477;DHT22;30180;44.788;10.366;2022-12-11T11:20:23;17.00;68.00
44477;DHT22;30180;44.788;10.366;2022-12-11T11:22:53;17.00;68.00
44477;DHT22;30180;44.788;10.366;2022-12-11T11:25:24;17.10;68.00
44477;DHT22;30180;44.788;10.366;2022-12-11T11:27:56;17.10;68.00
44477;DHT22;30180;44.788;10.366;2022-12-11T11:30:26;17.10;68.00
44477;DHT22;30180;44.788;10.366;2022-12-11T11:32:57;17.10;68.00
44477;DHT22;30180;44.788;10.366;2022-12-11T11:35:29;17.10;68.00
44477;DHT22;30180;44.788;10.366;2022-12-11T11:38:02;17.10;68.00
44477;DHT22;30180;44.788;10.366;2022-12-11T11:40:36;17.10;68.00
44477;DHT22;30180;44.788;10.366;2022-12-11T11:43:14;17.10;68.00
44477;DHT22;30180;44.788;10.366;2022-12-11T11:45:51;17.10;68.00
44477;DHT22;30180;44.788;10.366;2022-12-11T11:48:32;17.10;68.00
44477;DHT22;30180;44.788;10.366;2022-12-11T11:51:10;17.10;68.00
44477;DHT22;30180;44.788;10.366;2022-12-11T11:53:45;17.10;68.00
44477;DHT22;30180;44.788;10.366;2022-12-11T11:56:19;17.10;68.00
44477;DHT22;30180;44.788;10.366;2022-12-11T11:59:05;17.10;68.00
44477;DHT22;30180;44.788;10.366;2022-12-11T12:01:34;17.10;68.00
44477;DHT22;30180;44.788;10.366;2022-12-11T12:04:04;17.20;68.10
44477;DHT22;30180;44.788;10.366;2022-12-11T12:06:46;17.20;68.10
44477;DHT22;30180;44.788;10.366;2022-12-11T12:09:29;17.20;68.20
44477;DHT22;30180;44.788;10.366;2022-12-11T12:12:08;17.20;68.10
44477;DHT22;30180;44.788;10.366;2022-12-11T12:14:53;17.20;68.00
44477;DHT22;30180;44.788;10.366;2022-12-11T12:17:29;17.20;68.00
44477;DHT22;30180;44.788;10.366;2022-12-11T12:20:12;17.20;68.00
44477;DHT22;30180;44.788;10.366;2022-12-11T12:22:53;17.20;67.90
44477;DHT22;30180;44.788;10.366;2022-12-11T12:25:27;17.20;67.90
44477;DHT22;30180;44.788;10.366;2022-12-11T12:28:02;17.20;67.80
44477;DHT22;30180;44.788;10.366;2022-12-11T12:30:40;17.20;67.80
44477;DHT22;30180;44.788;10.366;2022-12-11T12:33:21;17.20;67.80
44477;DHT22;30180;44.788;10.366;2022-12-11T12:35:58;17.20;67.80
44477;DHT22;30180;44.788;10.366;2022-12-11T12:38:40;17.20;67.80
44477;DHT22;30180;44.788;10.366;2022-12-11T12:41:14;17.20;67.80
44477;DHT22;30180;44.788;10.366;2022-12-11T12:44:04;17.20;67.70
44477;DHT22;30180;44.788;10.366;2022-12-11T12:46:50;17.20;67.80
44477;DHT22;30180;44.788;10.366;2022-12-11T12:49:35;17.20;67.70
44477;DHT22;30180;44.788;10.366;2022-12-11T13:06:57;17.20;67.20
44477;DHT22;30180;44.788;10.366;2022-12-11T13:09:27;17.10;67.70
44477;DHT22;30180;44.788;10.366;2022-12-11T13:11:56;17.20;67.70
44477;DHT22;30180;44.788;10.366;2022-12-11T13:14:27;17.20;67.60
44477;DHT22;30180;44.788;10.366;2022-12-11T13:17:23;17.20;67.50
44477;DHT22;30180;44.788;10.366;2022-12-11T13:20:10;17.20;67.50
44477;DHT22;30180;44.788;10.366;2022-12-11T13:22:54;17.20;67.50
44477;DHT22;30180;44.788;10.366;2022-12-11T13:25:26;17.10;67.40
44477;DHT22;30180;44.788;10.366;2022-12-11T13:28:05;17.10;67.40
44477;DHT22;30180;44.788;10.366;2022-12-11T13:30:33;17.10;67.40
44477;DHT22;30180;44.788;10.366;2022-12-11T13:33:04;17.10;67.50
44477;DHT22;30180;44.788;10.366;2022-12-11T13:35:33;17.10;67.50
44477;DHT22;30180;44.788;10.366;2022-12-11T13:38:15;17.10;67.50
44477;DHT22;30180;44.788;10.366;2022-12-11T13:40:48;17.10;67.60
44477;DHT22;30180;44.788;10.366;2022-12-11T13:43:21;17.10;67.60
44477;DHT22;30180;44.788;10.366;2022-12-11T13:45:51;17.00;67.60
44477;DHT22;30180;44.788;10.366;2022-12-11T13:48:23;17.10;67.70
44477;DHT22;30180;44.788;10.366;2022-12-11T13:50:54;17.10;67.70
44477;DHT22;30180;44.788;10.366;2022-12-11T13:53:24;17.00;67.70
44477;DHT22;30180;44.788;10.366;2022-12-11T13:55:57;17.10;67.70
44477;DHT22;30180;44.788;10.366;2022-12-11T13:58:26;17.10;67.70
44477;DHT22;30180;44.788;10.366;2022-12-11T14:01:04;17.10;67.80
44477;DHT22;30180;44.788;10.366;2022-12-11T14:03:34;17.10;67.80
44477;DHT22;30180;44.788;10.366;2022-12-11T14:06:03;17.10;67.80
44477;DHT22;30180;44.788;10.366;2022-12-11T14:08:35;17.10;67.90
44477;DHT22;30180;44.788;10.366;2022-12-11T14:11:04;17.20;67.90
44477;DHT22;30180;44.788;10.366;2022-12-11T14:13:35;17.20;67.90
44477;DHT22;30180;44.788;10.366;2022-12-11T14:16:05;17.20;67.90
44477;DHT22;30180;44.788;10.366;2022-12-11T14:18:35;17.20;67.90
44477;DHT22;30180;44.788;10.366;2022-12-11T14:21:05;17.20;68.00
44477;DHT22;30180;44.788;10.366;2022-12-11T14:23:36;17.20;67.90
44477;DHT22;30180;44.788;10.366;2022-12-11T14:26:16;17.20;67.90
44477;DHT22;30180;44.788;10.366;2022-12-11T14:28:45;17.20;67.90
44477;DHT22;30180;44.788;10.366;2022-12-11T14:31:15;17.20;67.90
44477;DHT22;30180;44.788;10.366;2022-12-11T14:33:48;17.20;67.80
44477;DHT22;30180;44.788;10.366;2022-12-11T14:36:18;17.20;67.80
44477;DHT22;30180;44.788;10.366;2022-12-11T14:38:53;17.20;67.80
44477;DHT22;30180;44.788;10.366;2022-12-11T14:41:25;17.20;67.80
44477;DHT22;30180;44.788;10.366;2022-12-11T14:43:58;17.20;67.80
44477;DHT22;30180;44.788;10.366;2022-12-11T14:46:34;17.20;67.80
44477;DHT22;30180;44.788;10.366;2022-12-11T14:49:08;17.20;67.80
44477;DHT22;30180;44.788;10.366;2022-12-11T14:51:41;17.30;67.80
44477;DHT22;30180;44.788;10.366;2022-12-11T14:54:16;17.20;67.80
44477;DHT22;30180;44.788;10.366;2022-12-11T14:56:46;17.20;67.70
44477;DHT22;30180;44.788;10.366;2022-12-11T14:59:18;17.20;67.80
44477;DHT22;30180;44.788;10.366;2022-12-11T15:02:00;17.20;67.80
44477;DHT22;30180;44.788;10.366;2022-12-11T15:04:31;17.20;67.70
44477;DHT22;30180;44.788;10.366;2022-12-11T15:07:00;17.20;67.70
44477;DHT22;30180;44.788;10.366;2022-12-11T15:09:36;17.20;67.70
44477;DHT22;30180;44.788;10.366;2022-12-11T15:12:10;17.20;67.70
44477;DHT22;30180;44.788;10.366;2022-12-11T15:14:43;17.20;67.70
44477;DHT22;30180;44.788;10.366;2022-12-11T15:17:14;17.20;67.70
44477;DHT22;30180;44.788;10.366;2022-12-11T15:19:46;17.20;67.70
44477;DHT22;30180;44.788;10.366;2022-12-11T15:22:17;17.20;67.80
44477;DHT22;30180;44.788;10.366;2022-12-11T15:24:50;17.20;67.80
44477;DHT22;30180;44.788;10.366;2022-12-11T15:27:24;17.20;67.80
44477;DHT22;30180;44.788;10.366;2022-12-11T15:29:52;17.20;67.80
44477;DHT22;30180;44.788;10.366;2022-12-11T15:32:21;17.20;67.80
44477;DHT22;30180;44.788;10.366;2022-12-11T15:34:51;17.20;67.90
44477;DHT22;30180;44.788;10.366;2022-12-11T15:37:22;17.20;67.90
44477;DHT22;30180;44.788;10.366;2022-12-11T15:39:52;17.30;67.90
44477;DHT22;30180;44.788;10.366;2022-12-11T15:42:25;17.30;67.90
44477;DHT22;30180;44.788;10.366;2022-12-11T15:44:53;17.30;68.00
44477;DHT22;30180;44.788;10.366;2022-12-11T15:47:24;17.30;68.00
44477;DHT22;30180;44.788;10.366;2022-12-11T15:49:54;17.30;68.00
44477;DHT22;30180;44.788;10.366;2022-12-11T15:52:25;17.30;68.00
44477;DHT22;30180;44.788;10.366;2022-12-11T15:54:54;17.30;68.00
44477;DHT22;30180;44.788;10.366;2022-12-11T15:57:23;17.40;68.10
44477;DHT22;30180;44.788;10.366;2022-12-11T15:59:53;17.40;68.10
44477;DHT22;30180;44.788;10.366;2022-12-11T16:02:22;17.40;68.00
44477;DHT22;30180;44.788;10.366;2022-12-11T16:04:52;17.40;68.00